createdAt,value
2018-12-02T00:01:49.149Z,3.47
2018-12-02T00:03:58.107Z,3.75
2018-12-02T00:06:07.160Z,4.40
2018-12-02T00:08:16.025Z,4.10
2018-12-02T00:10:25.661Z,3.93
2018-12-02T00:12:33.596Z,3.40
2018-12-02T00:14:41.727Z,3.67
2018-12-02T00:16:49.732Z,3.90
2018-12-02T00:18:57.859Z,4.07
2018-12-02T00:21:05.798Z,3.70
2018-12-02T00:23:13.758Z,3.63
2018-12-02T00:29:37.738Z,3.37
2018-12-02T00:31:46.876Z,3.60
2018-12-02T00:33:54.844Z,3.60
2018-12-02T00:36:02.839Z,2.63
2018-12-02T00:38:09.564Z,2.13
2018-12-02T00:40:21.512Z,2.10
2018-12-02T00:42:29.493Z,1.73
2018-12-02T00:44:38.834Z,1.50
2018-12-02T00:46:46.908Z,2.03
2018-12-02T00:48:54.854Z,1.40
2018-12-02T00:51:02.815Z,1.40
2018-12-02T00:53:11.852Z,1.70
2018-12-02T00:55:30.094Z,1.80
2018-12-02T00:57:38.067Z,1.35
2018-12-02T00:59:46.326Z,1.50
2018-12-02T01:01:54.444Z,1.40
2018-12-02T01:04:02.537Z,1.23
2018-12-02T01:06:10.491Z,1.47
2018-12-02T01:08:18.497Z,1.53
2018-12-02T01:10:27.508Z,1.47
2018-12-02T01:12:35.450Z,1.20
2018-12-02T01:14:45.252Z,2.20
2018-12-02T01:16:53.225Z,1.83
2018-12-02T01:19:02.221Z,1.40
2018-12-02T01:21:10.872Z,1.07
2018-12-02T01:23:19.724Z,1.47
2018-12-02T01:25:27.836Z,1.20
2018-12-02T01:27:36.279Z,1.10
2018-12-02T01:29:48.155Z,1.13
2018-12-02T01:31:56.348Z,1.50
2018-12-02T01:34:04.543Z,1.50
2018-12-02T01:36:12.521Z,1.10
2018-12-02T01:38:21.046Z,1.03
2018-12-02T01:40:28.988Z,1.20
2018-12-02T01:42:36.926Z,1.40
2018-12-02T01:44:45.467Z,1.20
2018-12-02T01:46:55.467Z,1.60
2018-12-02T01:49:03.407Z,1.30
2018-12-02T01:51:13.348Z,1.17
2018-12-02T01:53:21.600Z,1.07
2018-12-02T01:55:29.563Z,1.40
2018-12-02T01:57:38.644Z,1.20
2018-12-02T01:59:48.201Z,1.37
2018-12-02T02:01:56.206Z,1.10
2018-12-02T02:04:04.286Z,1.47
2018-12-02T02:06:13.101Z,1.22
2018-12-02T02:08:21.908Z,1.13
2018-12-02T02:10:32.720Z,1.20
2018-12-02T02:12:40.626Z,1.10
2018-12-02T02:14:48.562Z,1.33
2018-12-02T02:16:56.606Z,1.00
2018-12-02T02:19:04.568Z,1.10
2018-12-02T02:21:12.557Z,1.10
2018-12-02T02:23:20.745Z,1.10
2018-12-02T02:25:28.729Z,1.00
2018-12-02T02:27:36.763Z,1.03
2018-12-02T02:29:45.412Z,1.22
2018-12-02T02:31:53.516Z,1.00
2018-12-02T02:34:01.567Z,1.20
2018-12-02T02:36:09.666Z,1.10
2018-12-02T02:38:17.611Z,1.23
2018-12-02T02:40:30.672Z,1.10
2018-12-02T02:42:38.731Z,1.00
2018-12-02T02:44:46.674Z,1.23
2018-12-02T02:46:54.918Z,1.37
2018-12-02T02:49:02.990Z,1.20
2018-12-02T02:51:11.282Z,1.30
2018-12-02T02:53:19.299Z,1.27
2018-12-02T02:55:27.293Z,1.10
2018-12-02T02:57:35.192Z,1.20
2018-12-02T02:59:43.195Z,1.13
2018-12-02T03:01:51.315Z,1.00
2018-12-02T03:03:59.482Z,1.17
2018-12-02T03:06:08.265Z,0.90
2018-12-02T03:08:16.592Z,1.57
2018-12-02T03:10:24.514Z,1.00
2018-12-02T03:12:32.441Z,1.37
2018-12-02T03:14:41.215Z,1.20
2018-12-02T03:16:49.211Z,1.23
2018-12-02T03:18:57.155Z,1.50
2018-12-02T03:21:05.313Z,1.13
2018-12-02T03:23:13.234Z,1.20
2018-12-02T03:25:22.706Z,1.20
2018-12-02T03:27:30.625Z,1.23
2018-12-02T03:29:38.572Z,1.30
2018-12-02T03:31:46.530Z,0.95
2018-12-02T03:33:54.594Z,1.10
2018-12-02T03:36:02.571Z,0.90
2018-12-02T03:38:10.734Z,1.20
2018-12-02T03:40:25.889Z,1.30
2018-12-02T03:42:34.541Z,1.00
2018-12-02T03:44:42.483Z,1.10
2018-12-02T03:46:50.481Z,1.10
2018-12-02T03:48:58.549Z,1.22
2018-12-02T03:51:06.919Z,1.10
2018-12-02T03:53:14.860Z,1.00
2018-12-02T03:55:22.826Z,1.00
2018-12-02T03:57:30.781Z,1.10
2018-12-02T03:59:38.716Z,1.10
2018-12-02T04:01:46.872Z,1.20
2018-12-02T04:03:54.855Z,1.10
2018-12-02T04:06:04.823Z,1.20
2018-12-02T04:08:12.805Z,1.10
2018-12-02T04:10:21.519Z,1.10
2018-12-02T04:12:29.419Z,1.20
2018-12-02T04:14:37.364Z,1.17
2018-12-02T04:16:45.548Z,1.00
2018-12-02T04:18:54.421Z,1.07
2018-12-02T04:21:02.375Z,1.17
2018-12-02T04:23:10.308Z,1.10
2018-12-02T04:25:27.957Z,0.90
2018-12-02T04:27:35.956Z,1.13
2018-12-02T04:29:43.908Z,1.37
2018-12-02T04:31:51.883Z,1.00
2018-12-02T04:33:59.794Z,1.00
2018-12-02T04:36:07.793Z,1.47
2018-12-02T04:38:15.774Z,1.00
2018-12-02T04:40:23.701Z,1.00
2018-12-02T04:42:31.619Z,1.10
2018-12-02T04:44:37.489Z,1.10
2018-12-02T04:46:45.670Z,1.27
2018-12-02T04:48:53.683Z,1.10
2018-12-02T04:51:01.615Z,1.30
2018-12-02T04:53:09.658Z,1.07
2018-12-02T04:55:17.624Z,1.30
2018-12-02T04:57:25.566Z,1.23
2018-12-02T04:59:33.602Z,2.15
2018-12-02T05:01:41.573Z,1.17
2018-12-02T05:03:49.588Z,1.30
2018-12-02T05:05:57.730Z,1.15
2018-12-02T05:08:05.683Z,1.30
2018-12-02T05:10:21.443Z,1.35
2018-12-02T05:12:29.329Z,1.40
2018-12-02T05:14:37.366Z,1.10
2018-12-02T05:16:45.646Z,1.07
2018-12-02T05:18:53.709Z,1.00
2018-12-02T05:21:01.652Z,1.47
2018-12-02T05:23:09.741Z,1.20
2018-12-02T05:25:18.813Z,0.97
2018-12-02T05:27:27.269Z,1.23
2018-12-02T05:29:35.145Z,1.10
2018-12-02T05:31:43.389Z,1.20
2018-12-02T05:33:51.320Z,1.10
2018-12-02T05:35:59.270Z,1.40
2018-12-02T05:38:07.623Z,1.40
2018-12-02T05:40:22.225Z,1.30
2018-12-02T05:42:33.680Z,1.20
2018-12-02T05:44:42.258Z,1.33
2018-12-02T05:46:51.203Z,1.20
2018-12-02T05:48:59.111Z,1.10
2018-12-02T05:51:07.289Z,1.10
2018-12-02T05:53:15.255Z,1.00
2018-12-02T05:55:37.214Z,1.40
2018-12-02T05:57:45.899Z,1.27
2018-12-02T05:59:53.817Z,1.30
2018-12-02T06:02:01.758Z,1.20
2018-12-02T06:04:09.787Z,1.20
2018-12-02T06:06:17.778Z,1.40
2018-12-02T06:08:25.775Z,1.50
2018-12-02T06:10:33.790Z,1.07
2018-12-02T06:12:41.797Z,1.20
2018-12-02T06:14:49.878Z,1.00
2018-12-02T06:16:57.842Z,1.23
2018-12-02T06:19:06.052Z,1.33
2018-12-02T06:21:14.129Z,1.30
2018-12-02T06:23:22.144Z,1.40
2018-12-02T06:25:30.134Z,1.30
2018-12-02T06:27:38.435Z,1.10
2018-12-02T06:29:46.439Z,1.20
2018-12-02T06:31:54.590Z,1.40
2018-12-02T06:34:02.519Z,1.40
2018-12-02T06:36:10.547Z,1.30
2018-12-02T06:38:18.500Z,1.20
2018-12-02T06:40:30.477Z,1.40
2018-12-02T06:42:39.564Z,1.17
2018-12-02T06:44:44.804Z,1.10
2018-12-02T06:46:52.733Z,1.33
2018-12-02T06:49:00.796Z,1.10
2018-12-02T06:51:11.165Z,1.25
2018-12-02T06:53:19.257Z,1.60
2018-12-02T06:56:02.865Z,1.10
2018-12-02T06:58:40.319Z,1.17
2018-12-02T07:01:49.451Z,1.17
2018-12-02T07:04:22.122Z,1.20
2018-12-02T07:06:30.116Z,1.27
2018-12-02T07:08:38.122Z,1.13
2018-12-02T07:10:46.109Z,1.00
2018-12-02T07:12:54.085Z,1.20
2018-12-02T07:15:02.092Z,1.10
2018-12-02T07:17:10.195Z,1.20
2018-12-02T07:19:36.949Z,1.20
2018-12-02T07:21:49.576Z,1.10
2018-12-02T07:23:58.566Z,1.27
2018-12-02T07:26:09.077Z,1.10
2018-12-02T07:28:17.062Z,1.27
2018-12-02T07:30:25.181Z,1.10
2018-12-02T07:32:34.073Z,1.20
2018-12-02T07:34:55.096Z,1.30
2018-12-02T07:37:19.301Z,1.10
2018-12-02T07:40:35.798Z,1.10
2018-12-02T07:42:43.772Z,1.00
2018-12-02T07:44:48.724Z,1.30
2018-12-02T07:46:56.727Z,1.30
2018-12-02T07:49:04.690Z,1.00
2018-12-02T07:51:12.774Z,1.00
2018-12-02T07:53:20.681Z,1.17
2018-12-02T07:55:28.697Z,1.00
2018-12-02T07:57:36.677Z,1.47
2018-12-02T07:59:44.625Z,1.10
2018-12-02T08:01:52.582Z,1.13
2018-12-02T08:04:00.686Z,1.20
2018-12-02T08:06:09.442Z,1.13
2018-12-02T08:08:17.476Z,0.90
2018-12-02T08:10:29.703Z,1.10
2018-12-02T08:12:37.758Z,1.17
2018-12-02T08:14:46.240Z,0.93
2018-12-02T08:16:54.177Z,1.00
2018-12-02T08:19:02.263Z,1.00
2018-12-02T08:21:10.247Z,1.00
2018-12-02T08:23:18.238Z,1.05
2018-12-02T08:25:26.389Z,1.15
2018-12-02T08:27:34.611Z,1.00
2018-12-02T08:29:42.610Z,1.03
2018-12-02T08:31:50.602Z,1.20
2018-12-02T08:33:58.597Z,1.40
2018-12-02T08:36:06.592Z,0.93
2018-12-02T08:38:15.054Z,1.20
2018-12-02T08:40:23.157Z,1.23
2018-12-02T08:42:31.306Z,1.10
2018-12-02T08:44:39.336Z,1.30
2018-12-02T08:46:48.113Z,1.00
2018-12-02T08:48:56.222Z,1.03
2018-12-02T08:51:04.237Z,1.13
2018-12-02T08:53:14.060Z,1.22
2018-12-02T08:55:22.753Z,1.10
2018-12-02T08:57:30.711Z,1.50
2018-12-02T08:59:38.846Z,1.00
2018-12-02T09:01:46.895Z,1.00
2018-12-02T09:03:55.036Z,1.30
2018-12-02T09:06:03.129Z,1.10
2018-12-02T09:08:12.343Z,1.17
2018-12-02T09:10:24.957Z,1.00
2018-12-02T09:12:33.016Z,1.17
2018-12-02T09:14:41.227Z,1.13
2018-12-02T09:16:49.309Z,1.20
2018-12-02T09:18:58.255Z,1.03
2018-12-02T09:21:06.522Z,1.10
2018-12-02T09:23:14.940Z,1.23
2018-12-02T09:25:22.975Z,0.93
2018-12-02T09:27:31.998Z,1.80
2018-12-02T09:29:40.024Z,1.30
2018-12-02T09:31:48.127Z,1.27
2018-12-02T09:33:56.241Z,1.03
2018-12-02T09:36:04.211Z,1.20
2018-12-02T09:38:12.255Z,1.10
2018-12-02T09:40:20.538Z,1.00
2018-12-02T09:42:28.584Z,1.27
2018-12-02T09:44:36.616Z,1.13
2018-12-02T09:46:44.617Z,1.00
2018-12-02T09:48:51.691Z,1.00
2018-12-02T09:50:59.672Z,1.00
2018-12-02T09:53:09.057Z,1.10
2018-12-02T09:55:31.627Z,1.50
2018-12-02T09:57:39.822Z,1.40
2018-12-02T09:59:47.843Z,1.10
2018-12-02T10:01:56.286Z,1.00
2018-12-02T10:04:04.291Z,1.30
2018-12-02T10:06:12.358Z,1.20
2018-12-02T10:08:20.865Z,1.20
2018-12-02T10:10:29.231Z,1.20
2018-12-02T10:12:37.570Z,1.10
2018-12-02T10:14:46.853Z,1.27
2018-12-02T10:16:55.071Z,1.43
2018-12-02T10:19:03.155Z,1.40
2018-12-02T10:21:11.421Z,1.50
2018-12-02T10:23:19.447Z,1.47
2018-12-02T10:25:27.686Z,1.30
2018-12-02T10:27:35.720Z,1.30
2018-12-02T10:29:43.759Z,1.00
2018-12-02T10:31:51.864Z,1.30
2018-12-02T10:33:59.936Z,1.45
2018-12-02T10:36:08.281Z,1.80
2018-12-02T10:38:16.286Z,1.20
2018-12-02T10:40:28.575Z,1.50
2018-12-02T10:42:37.443Z,1.40
2018-12-02T10:44:45.475Z,1.10
2018-12-02T10:46:53.653Z,1.30
2018-12-02T10:48:58.604Z,1.07
2018-12-02T10:51:06.922Z,1.50
2018-12-02T10:53:24.781Z,1.20
2018-12-02T10:56:04.050Z,1.57
2018-12-02T10:58:28.741Z,1.37
2018-12-02T11:00:53.997Z,1.30
2018-12-02T11:03:02.103Z,1.10
2018-12-02T11:05:10.599Z,1.30
2018-12-02T11:07:19.121Z,1.23
2018-12-02T11:09:27.285Z,1.23
2018-12-02T11:11:35.341Z,1.20
2018-12-02T11:13:43.321Z,1.20
2018-12-02T11:15:51.400Z,1.40
2018-12-02T11:17:59.725Z,1.23
2018-12-02T11:20:10.358Z,1.17
2018-12-02T11:22:18.510Z,1.10
2018-12-02T11:24:26.938Z,1.27
2018-12-02T11:26:34.982Z,1.50
2018-12-02T11:28:43.981Z,2.07
2018-12-02T11:30:52.224Z,1.80
2018-12-02T11:33:00.386Z,2.10
2018-12-02T11:35:10.739Z,2.30
2018-12-02T11:37:18.767Z,1.50
2018-12-02T11:39:26.867Z,1.30
2018-12-02T11:41:35.430Z,1.13
2018-12-02T11:43:43.625Z,1.30
2018-12-02T11:45:51.709Z,1.50
2018-12-02T11:47:59.762Z,1.50
2018-12-02T11:50:05.374Z,2.27
2018-12-02T11:52:13.417Z,1.80
2018-12-02T11:54:21.579Z,2.20
2018-12-02T11:56:29.697Z,1.60
2018-12-02T11:58:38.854Z,1.50
2018-12-02T12:00:47.092Z,1.55
2018-12-02T12:02:55.927Z,2.13
2018-12-02T12:05:04.053Z,1.90
2018-12-02T12:07:17.755Z,1.40
2018-12-02T12:09:28.677Z,1.00
2018-12-02T12:11:39.432Z,1.50
2018-12-02T12:13:50.364Z,1.10
2018-12-02T12:16:01.988Z,1.40
2018-12-02T12:18:11.482Z,1.27
2018-12-02T12:20:27.432Z,1.20
2018-12-02T12:22:35.522Z,1.30
2018-12-02T12:24:44.589Z,1.00
2018-12-02T12:26:55.695Z,1.10
2018-12-02T12:29:04.039Z,1.10
2018-12-02T12:31:12.280Z,1.20
2018-12-02T12:33:20.894Z,1.23
2018-12-02T12:35:29.280Z,1.17
2018-12-02T12:37:38.490Z,1.30
2018-12-02T12:39:47.354Z,1.40
2018-12-02T12:41:55.369Z,1.43
2018-12-02T12:44:03.605Z,1.00
2018-12-02T12:46:11.723Z,1.10
2018-12-02T12:48:19.808Z,1.33
2018-12-02T12:50:25.916Z,1.30
2018-12-02T12:52:33.961Z,1.40
2018-12-02T12:54:41.972Z,1.20
2018-12-02T12:56:50.046Z,1.40
2018-12-02T12:59:00.850Z,1.23
2018-12-02T13:01:09.222Z,1.23
2018-12-02T13:03:17.583Z,1.40
2018-12-02T13:05:27.665Z,1.23
2018-12-02T13:07:36.124Z,1.40
2018-12-02T13:09:44.195Z,1.33
2018-12-02T13:11:52.271Z,1.00
2018-12-02T13:14:00.227Z,1.40
2018-12-02T13:16:08.737Z,1.90
2018-12-02T13:18:16.847Z,1.10
2018-12-02T13:20:25.403Z,1.10
2018-12-02T13:22:33.493Z,1.50
2018-12-02T13:24:41.573Z,1.40
2018-12-02T13:26:49.989Z,1.53
2018-12-02T13:28:58.981Z,1.30
2018-12-02T13:31:07.303Z,1.07
2018-12-02T13:33:15.386Z,1.05
2018-12-02T13:35:23.515Z,1.20
2018-12-02T13:37:31.683Z,1.20
2018-12-02T13:39:39.786Z,1.00
2018-12-02T13:41:47.776Z,1.30
2018-12-02T13:43:56.481Z,1.10
2018-12-02T13:46:04.506Z,1.10
2018-12-02T13:48:12.645Z,1.10
2018-12-02T13:50:21.738Z,1.20
2018-12-02T13:52:26.736Z,1.00
2018-12-02T13:54:38.495Z,1.90
2018-12-02T13:56:47.479Z,1.02
2018-12-02T13:58:55.626Z,1.05
2018-12-02T14:01:03.696Z,1.27
2018-12-02T14:03:13.484Z,1.30
2018-12-02T14:05:21.900Z,1.40
2018-12-02T14:07:29.885Z,1.47
2018-12-02T14:09:37.923Z,1.40
2018-12-02T14:11:46.067Z,1.17
2018-12-02T14:13:54.502Z,1.27
2018-12-02T14:16:30.910Z,1.20
2018-12-02T14:18:44.100Z,1.20
2018-12-02T14:20:52.833Z,1.40
2018-12-02T14:23:00.820Z,1.20
2018-12-02T14:25:15.647Z,1.20
2018-12-02T14:27:23.707Z,1.40
2018-12-02T14:29:50.244Z,1.20
2018-12-02T14:32:04.131Z,1.00
2018-12-02T14:34:12.110Z,1.27
2018-12-02T14:36:26.341Z,1.30
2018-12-02T14:38:30.628Z,1.10
2018-12-02T14:40:39.047Z,1.20
2018-12-02T14:42:48.035Z,1.40
2018-12-02T14:44:56.042Z,1.17
2018-12-02T14:47:04.002Z,1.10
2018-12-02T14:49:12.059Z,1.40
2018-12-02T14:51:20.142Z,1.30
2018-12-02T14:53:30.112Z,1.20
2018-12-02T14:55:38.602Z,1.33
2018-12-02T14:57:48.086Z,1.30
2018-12-02T14:59:56.114Z,1.40
2018-12-02T15:02:04.249Z,1.30
2018-12-02T15:04:12.329Z,1.30
2018-12-02T15:06:20.405Z,1.07
2018-12-02T15:08:29.463Z,1.30
2018-12-02T15:10:38.376Z,1.30
2018-12-02T15:12:49.536Z,1.47
2018-12-02T15:14:57.723Z,1.10
2018-12-02T15:17:05.704Z,1.20
2018-12-02T15:19:14.912Z,1.10
2018-12-02T15:21:23.605Z,1.10
2018-12-02T15:23:31.724Z,1.40
2018-12-02T15:25:40.039Z,1.20
2018-12-02T15:27:48.424Z,1.10
2018-12-02T15:29:56.496Z,1.13
2018-12-02T15:32:05.548Z,1.20
2018-12-02T15:34:14.075Z,1.10
2018-12-02T15:36:22.364Z,1.10
2018-12-02T15:38:30.495Z,1.80
2018-12-02T15:40:38.735Z,1.30
2018-12-02T15:42:52.564Z,1.07
2018-12-02T15:45:01.483Z,1.27
2018-12-02T15:47:09.477Z,1.13
2018-12-02T15:49:18.743Z,1.20
2018-12-02T15:51:26.834Z,1.10
2018-12-02T15:53:31.816Z,1.23
2018-12-02T15:55:40.109Z,1.17
2018-12-02T15:57:48.125Z,1.30
2018-12-02T15:59:56.328Z,1.33
2018-12-02T16:02:04.651Z,1.20
2018-12-02T16:04:12.663Z,1.30
2018-12-02T16:06:21.356Z,1.40
2018-12-02T16:08:29.359Z,1.80
2018-12-02T16:10:37.742Z,1.43
2018-12-02T16:12:47.716Z,2.20
2018-12-02T16:14:55.845Z,1.40
2018-12-02T16:17:04.026Z,1.30
2018-12-02T16:19:12.324Z,1.30
2018-12-02T16:21:20.330Z,1.37
2018-12-02T16:24:03.216Z,1.70
2018-12-02T16:26:11.201Z,1.40
2018-12-02T16:28:19.378Z,1.20
2018-12-02T16:30:27.399Z,1.60
2018-12-02T16:32:35.446Z,1.63
2018-12-02T16:34:43.493Z,1.70
2018-12-02T16:36:51.541Z,1.27
2018-12-02T16:38:59.485Z,1.37
2018-12-02T16:41:08.056Z,1.13
2018-12-02T16:43:16.760Z,1.10
2018-12-02T16:45:24.963Z,1.10
2018-12-02T16:47:33.059Z,1.10
2018-12-02T16:49:41.234Z,1.20
2018-12-02T16:51:49.688Z,1.27
2018-12-02T16:53:57.870Z,1.30
2018-12-02T16:56:17.128Z,1.43
2018-12-02T16:58:59.996Z,1.40
2018-12-02T17:01:22.668Z,1.10
2018-12-02T17:03:30.782Z,1.43
2018-12-02T17:05:39.135Z,1.40
2018-12-02T17:07:47.751Z,1.10
2018-12-02T17:09:56.231Z,1.30
2018-12-02T17:12:04.301Z,1.37
2018-12-02T17:14:12.909Z,1.40
2018-12-02T17:16:21.090Z,1.37
2018-12-02T17:18:29.129Z,1.20
2018-12-02T17:20:37.170Z,1.50
2018-12-02T17:22:45.935Z,1.53
2018-12-02T17:24:54.001Z,1.27
2018-12-02T17:27:02.035Z,1.20
2018-12-02T17:29:15.603Z,1.20
2018-12-02T17:31:34.235Z,1.50
2018-12-02T17:33:43.152Z,1.30
2018-12-02T17:35:51.193Z,1.40
2018-12-02T17:37:59.179Z,1.20
2018-12-02T17:40:24.338Z,1.20
2018-12-02T17:42:32.419Z,1.30
2018-12-02T17:44:40.568Z,1.30
2018-12-02T17:46:48.624Z,1.00
2018-12-02T17:48:57.057Z,1.30
2018-12-02T17:51:05.102Z,1.23
2018-12-02T17:53:15.072Z,1.10
2018-12-02T17:55:20.037Z,1.67
2018-12-02T17:57:28.107Z,1.50
2018-12-02T17:59:36.190Z,1.40
2018-12-02T18:01:44.476Z,1.40
2018-12-02T18:03:53.098Z,1.30
2018-12-02T18:06:01.245Z,1.40
2018-12-02T18:08:10.085Z,1.10
2018-12-02T18:10:18.376Z,1.40
2018-12-02T18:12:26.575Z,1.20
2018-12-02T18:16:54.159Z,1.40
2018-12-02T18:19:03.428Z,1.37
2018-12-02T18:21:11.517Z,1.30
2018-12-02T18:23:19.686Z,1.20
2018-12-02T18:25:28.240Z,1.37
2018-12-02T18:27:36.239Z,1.23
2018-12-02T18:29:44.328Z,1.10
2018-12-02T18:31:52.736Z,1.17
2018-12-02T18:34:00.732Z,1.37
2018-12-02T18:36:27.746Z,1.20
2018-12-02T18:38:38.111Z,1.90
2018-12-02T18:41:15.688Z,1.20
2018-12-02T18:43:23.908Z,1.40
2018-12-02T18:45:32.933Z,1.30
2018-12-02T18:47:41.961Z,1.10
2018-12-02T18:49:50.025Z,1.27
2018-12-02T18:51:58.187Z,1.20
2018-12-02T18:54:07.393Z,1.10
2018-12-02T18:56:16.675Z,1.20
2018-12-02T18:58:25.311Z,1.13
2018-12-02T19:00:46.876Z,1.20
2018-12-02T19:02:57.583Z,1.30
2018-12-02T19:05:05.703Z,1.10
2018-12-02T19:07:13.879Z,1.13
2018-12-02T19:09:22.269Z,1.20
2018-12-02T19:11:30.402Z,1.10
2018-12-02T19:13:43.622Z,1.13
2018-12-02T19:15:49.129Z,1.30
2018-12-02T19:17:57.500Z,1.20
2018-12-02T19:20:23.680Z,1.40
2018-12-02T19:22:31.696Z,1.23
2018-12-02T19:24:39.850Z,1.20
2018-12-02T19:26:49.836Z,1.20
2018-12-02T19:28:57.983Z,1.40
2018-12-02T19:31:06.559Z,1.30
2018-12-02T19:33:22.237Z,1.30
2018-12-02T19:35:40.332Z,1.50
2018-12-02T19:37:50.513Z,1.20
2018-12-02T19:39:58.587Z,1.50
2018-12-02T19:42:08.082Z,1.30
2018-12-02T19:44:16.132Z,1.10
2018-12-02T19:46:24.657Z,1.10
2018-12-02T19:48:32.746Z,1.20
2018-12-02T19:50:41.129Z,1.30
2018-12-02T19:52:50.025Z,1.20
2018-12-02T19:54:58.099Z,1.20
2018-12-02T19:57:07.248Z,1.30
2018-12-02T19:59:15.438Z,1.20
2018-12-02T20:01:23.563Z,1.50
2018-12-02T20:03:32.161Z,1.60
2018-12-02T20:05:40.498Z,2.27
2018-12-02T20:07:56.689Z,1.80
2018-12-02T20:10:05.350Z,1.70
2018-12-02T20:12:13.391Z,1.10
2018-12-02T20:14:21.590Z,1.10
2018-12-02T20:16:29.683Z,1.10
2018-12-02T20:18:38.344Z,1.30
2018-12-02T20:20:54.544Z,1.20
2018-12-02T20:23:03.242Z,1.50
2018-12-02T20:25:11.399Z,1.20
2018-12-02T20:27:21.342Z,1.20
2018-12-02T20:29:29.863Z,1.20
2018-12-02T20:31:38.054Z,1.30
2018-12-02T20:33:46.549Z,1.30
2018-12-02T20:35:54.911Z,1.40
2018-12-02T20:38:03.519Z,1.20
2018-12-02T20:40:25.758Z,1.50
2018-12-02T20:42:33.847Z,1.30
2018-12-02T20:44:42.010Z,1.30
2018-12-02T20:46:50.086Z,1.20
2018-12-02T20:48:58.279Z,1.37
2018-12-02T20:51:06.311Z,1.70
2018-12-02T20:53:16.159Z,1.30
2018-12-02T20:55:28.775Z,1.33
2018-12-02T20:57:36.939Z,1.40
2018-12-02T20:59:45.123Z,1.60
2018-12-02T21:01:53.279Z,1.20
2018-12-02T21:04:02.028Z,1.20
2018-12-02T21:06:12.665Z,1.27
2018-12-02T21:08:22.114Z,1.00
2018-12-02T21:10:30.182Z,1.50
2018-12-02T21:12:38.323Z,1.30
2018-12-02T21:14:46.569Z,1.50
2018-12-02T21:16:54.666Z,1.20
2018-12-02T21:19:02.690Z,1.23
2018-12-02T21:21:10.754Z,1.30
2018-12-02T21:23:18.747Z,1.20
2018-12-02T21:25:28.430Z,1.10
2018-12-02T21:27:36.443Z,1.00
2018-12-02T21:29:44.475Z,1.20
2018-12-02T21:31:52.517Z,1.47
2018-12-02T21:34:00.558Z,1.43
2018-12-02T21:36:09.073Z,1.40
2018-12-02T21:38:17.114Z,1.20
2018-12-02T21:40:25.214Z,1.30
2018-12-02T21:42:33.607Z,1.30
2018-12-02T21:44:41.625Z,1.17
2018-12-02T21:46:49.704Z,1.37
2018-12-02T21:48:57.689Z,1.10
2018-12-02T21:51:05.842Z,1.27
2018-12-02T21:53:13.909Z,1.30
2018-12-02T21:55:21.982Z,1.10
2018-12-02T21:57:29.998Z,1.03
2018-12-02T21:59:38.406Z,1.10
2018-12-02T22:01:46.485Z,1.23
2018-12-02T22:03:56.407Z,1.10
2018-12-02T22:06:04.432Z,1.10
2018-12-02T22:08:12.469Z,1.00
2018-12-02T22:10:31.170Z,1.00
2018-12-02T22:12:39.134Z,1.10
2018-12-02T22:14:48.061Z,1.00
2018-12-02T22:16:56.116Z,1.20
2018-12-02T22:19:04.475Z,0.93
2018-12-02T22:21:12.444Z,0.90
2018-12-02T22:23:20.485Z,1.23
2018-12-02T22:25:29.064Z,1.10
2018-12-02T22:27:37.449Z,1.10
2018-12-02T22:29:45.542Z,1.00
2018-12-02T22:31:53.601Z,1.00
2018-12-02T22:34:02.445Z,1.20
2018-12-02T22:36:13.891Z,1.00
2018-12-02T22:38:20.382Z,0.90
2018-12-02T22:40:29.149Z,1.03
2018-12-02T22:42:37.261Z,1.30
2018-12-02T22:44:45.270Z,1.00
2018-12-02T22:46:53.332Z,1.17
2018-12-02T22:49:01.330Z,1.03
2018-12-02T22:51:11.489Z,0.90
2018-12-02T22:53:19.465Z,0.97
2018-12-02T22:55:27.456Z,1.00
2018-12-02T22:57:36.817Z,0.93
2018-12-02T22:59:44.847Z,1.00
2018-12-02T23:02:10.657Z,1.00
2018-12-02T23:04:18.650Z,1.10
2018-12-02T23:06:29.074Z,0.90
2018-12-02T23:08:38.185Z,1.00
2018-12-02T23:10:46.249Z,0.97
2018-12-02T23:12:54.522Z,1.10
2018-12-02T23:15:02.477Z,0.80
2018-12-02T23:17:36.244Z,1.00
2018-12-02T23:19:44.181Z,1.00
2018-12-02T23:21:52.612Z,0.93
2018-12-02T23:24:00.695Z,1.00
2018-12-02T23:26:09.163Z,1.10
2018-12-02T23:28:17.230Z,1.00
2018-12-02T23:30:26.843Z,0.80
2018-12-02T23:32:34.816Z,1.00
2018-12-02T23:34:43.810Z,1.27
2018-12-02T23:36:51.847Z,1.37
2018-12-02T23:39:00.303Z,1.10
2018-12-02T23:41:08.563Z,1.10
2018-12-02T23:43:16.518Z,0.93
2018-12-02T23:45:24.498Z,1.03
2018-12-02T23:47:32.497Z,0.90
2018-12-02T23:49:40.468Z,0.80
2018-12-02T23:51:49.270Z,1.10
2018-12-02T23:53:57.465Z,0.90
2018-12-02T23:56:07.281Z,1.00
2018-12-02T23:58:15.227Z,0.90
